Time;durP1;ratioP1;P1;durP2;ratioP2;P2;SDS_P1;SDS_P2;PMS_P1;PMS_P2;Temp;Humidity;BMP_temperature;BMP_pressure;BME280_temperature;BME280_humidity;BME280_pressure;Samples;Min_cycle;Max_cycle;Signal;HPM_P1;HPM_P2
2023/06/28 00:00:42;;;;;;;3.03;2.00;;;;;;;;;;5019470;28;20041;-72
2023/06/28 00:03:10;;;;;;;5.20;2.10;;;;;;;;;;5020521;28;20410;-71
2023/06/28 00:05:35;;;;;;;7.15;2.03;;;;;;;;;;5020898;28;20056;-71
2023/06/28 00:08:01;;;;;;;10.13;2.22;;;;;;;;;;5019584;28;20053;-71
2023/06/28 00:10:26;;;;;;;3.25;2.28;;;;;;;;;;5019597;28;20052;-72
2023/06/28 00:12:51;;;;;;;3.25;2.35;;;;;;;;;;5019902;28;20050;-71
2023/06/28 00:15:17;;;;;;;3.53;2.17;;;;;;;;;;5024119;28;20746;-71
2023/06/28 00:17:42;;;;;;;3.50;2.35;;;;;;;;;;5024891;28;20095;-71
2023/06/28 00:20:08;;;;;;;4.35;2.20;;;;;;;;;;5025177;28;20049;-71
2023/06/28 00:22:34;;;;;;;4.30;2.25;;;;;;;;;;5026103;28;20041;-71
2023/06/28 00:25:03;;;;;;;3.55;2.20;;;;;;;;;;5026362;28;20033;-71
2023/06/28 00:27:28;;;;;;;7.50;2.22;;;;;;;;;;5025473;28;20091;-70
2023/06/28 00:29:55;;;;;;;2.75;2.50;;;;;;;;;;5025937;28;20502;-70
2023/06/28 00:32:21;;;;;;;3.08;2.40;;;;;;;;;;5025206;28;20083;-71
2023/06/28 00:34:47;;;;;;;5.45;2.60;;;;;;;;;;4993889;28;20128;-71
2023/06/28 00:37:12;;;;;;;3.90;2.45;;;;;;;;;;5026408;28;20308;-71
2023/06/28 00:39:38;;;;;;;5.05;2.80;;;;;;;;;;5024677;28;20698;-71
2023/06/28 00:42:03;;;;;;;4.53;2.90;;;;;;;;;;5026086;28;20049;-71
2023/06/28 00:44:29;;;;;;;5.07;2.67;;;;;;;;;;5025876;28;20394;-72
2023/06/28 00:46:55;;;;;;;3.30;2.70;;;;;;;;;;5026245;28;20057;-71
2023/06/28 00:49:27;;;;;;;4.65;3.22;;;;;;;;;;5023872;28;20059;-71
2023/06/28 00:51:54;;;;;;;5.43;3.10;;;;;;;;;;5024938;28;20589;-72
2023/06/28 00:54:20;;;;;;;9.05;3.22;;;;;;;;;;5026122;28;20045;-72
2023/06/28 00:56:47;;;;;;;5.60;2.85;;;;;;;;;;5040412;28;20410;-72
2023/06/28 00:59:14;;;;;;;7.18;2.95;;;;;;;;;;5023953;28;20059;-72
2023/06/28 01:01:41;;;;;;;4.72;3.50;;;;;;;;;;5025519;28;20099;-71
2023/06/28 01:04:07;;;;;;;8.32;3.08;;;;;;;;;;5027298;28;20054;-71
2023/06/28 01:06:35;;;;;;;6.50;3.60;;;;;;;;;;5036474;28;20041;-72
2023/06/28 01:09:10;;;;;;;4.38;2.92;;;;;;;;;;5026923;28;20048;-71
2023/06/28 01:11:37;;;;;;;6.80;3.67;;;;;;;;;;5030147;28;20068;-72
2023/06/28 01:14:05;;;;;;;4.82;3.65;;;;;;;;;;5028124;28;20084;-72
2023/06/28 01:16:31;;;;;;;4.03;2.97;;;;;;;;;;5024626;28;20402;-70
2023/06/28 01:18:56;;;;;;;4.40;3.22;;;;;;;;;;5002275;28;20041;-70
2023/06/28 01:21:25;;;;;;;3.88;3.47;;;;;;;;;;5025290;28;20079;-71
2023/06/28 01:23:50;;;;;;;9.63;3.47;;;;;;;;;;5026158;28;20089;-70
2023/06/28 01:26:17;;;;;;;5.85;3.80;;;;;;;;;;5027725;28;20460;-70
2023/06/28 01:28:44;;;;;;;6.40;3.65;;;;;;;;;;5020421;28;20049;-70
2023/06/28 01:31:11;;;;;;;6.10;3.83;;;;;;;;;;5022322;28;20529;-70
2023/06/28 01:33:38;;;;;;;5.45;3.85;;;;;;;;;;5022452;28;20057;-70
2023/06/28 01:36:04;;;;;;;8.13;4.05;;;;;;;;;;5037741;28;20068;-70
2023/06/28 01:38:31;;;;;;;4.93;3.88;;;;;;;;;;5031498;28;20442;-71
2023/06/28 01:40:58;;;;;;;6.57;4.20;;;;;;;;;;5021401;28;20056;-70
2023/06/28 01:43:24;;;;;;;6.60;3.67;;;;;;;;;;5022412;28;20033;-70
2023/06/28 01:45:49;;;;;;;7.35;3.78;;;;;;;;;;5034333;28;20504;-70
2023/06/28 01:48:16;;;;;;;8.23;4.15;;;;;;;;;;5030567;28;20056;-70
2023/06/28 01:50:42;;;;;;;5.20;4.00;;;;;;;;;;5033396;28;20045;-70
2023/06/28 01:53:08;;;;;;;4.43;3.63;;;;;;;;;;5022641;28;20045;-70
2023/06/28 01:55:33;;;;;;;5.53;3.83;;;;;;;;;;5022114;28;20047;-70
2023/06/28 01:57:58;;;;;;;5.53;4.10;;;;;;;;;;5036731;28;20149;-70
2023/06/28 02:00:24;;;;;;;6.43;3.78;;;;;;;;;;5015991;28;20577;-70
2023/06/28 02:02:50;;;;;;;5.95;4.10;;;;;;;;;;5028142;28;20417;-71
2023/06/28 02:05:16;;;;;;;4.35;3.75;;;;;;;;;;5037294;28;20410;-71
2023/06/28 02:07:42;;;;;;;6.35;3.63;;;;;;;;;;5020384;28;20111;-71
2023/06/28 02:10:09;;;;;;;5.57;3.95;;;;;;;;;;5028435;28;20044;-72
2023/06/28 02:12:34;;;;;;;5.68;3.67;;;;;;;;;;5032472;28;20037;-72
2023/06/28 02:15:03;;;;;;;3.58;3.28;;;;;;;;;;5022428;28;20049;-73
2023/06/28 02:17:30;;;;;;;10.25;4.10;;;;;;;;;;5021973;28;20060;-72
2023/06/28 02:19:56;;;;;;;5.68;4.05;;;;;;;;;;5036649;28;20045;-71
2023/06/28 02:22:22;;;;;;;4.38;3.40;;;;;;;;;;5031290;28;20133;-71
2023/06/28 02:24:47;;;;;;;6.97;3.25;;;;;;;;;;5028081;28;20077;-70
2023/06/28 02:27:13;;;;;;;4.30;3.67;;;;;;;;;;5021591;28;20041;-71
2023/06/28 02:29:39;;;;;;;4.45;3.92;;;;;;;;;;5020458;28;20049;-70
2023/06/28 02:32:05;;;;;;;7.05;3.40;;;;;;;;;;5025299;28;20045;-71
2023/06/28 02:34:30;;;;;;;4.90;3.85;;;;;;;;;;5032704;28;20049;-72
2023/06/28 02:36:55;;;;;;;12.18;3.95;;;;;;;;;;5035751;28;20417;-72
2023/06/28 02:39:22;;;;;;;5.53;3.88;;;;;;;;;;5020798;28;20045;-72
2023/06/28 02:41:48;;;;;;;7.60;3.75;;;;;;;;;;5033199;28;20088;-72
2023/06/28 02:44:14;;;;;;;6.68;3.88;;;;;;;;;;5020612;28;20782;-72
2023/06/28 02:46:40;;;;;;;9.88;4.43;;;;;;;;;;5030025;28;20041;-73
2023/06/28 02:49:06;;;;;;;7.55;4.80;;;;;;;;;;5019344;28;20037;-73
2023/06/28 02:51:32;;;;;;;5.38;4.15;;;;;;;;;;5020136;28;20059;-72
2023/06/28 02:54:01;;;;;;;8.32;4.35;;;;;;;;;;5019092;28;20132;-72
2023/06/28 02:56:27;;;;;;;7.78;4.80;;;;;;;;;;5021658;28;20061;-72
2023/06/28 02:59:11;;;;;;;8.88;4.70;;;;;;;;;;5021385;28;20052;-71
2023/06/28 03:01:37;;;;;;;11.13;4.32;;;;;;;;;;5019753;28;20041;-71
2023/06/28 03:04:02;;;;;;;5.80;4.45;;;;;;;;;;5036200;28;20037;-72
2023/06/28 03:06:30;;;;;;;6.80;4.60;;;;;;;;;;5017055;28;20041;-72
2023/06/28 03:08:55;;;;;;;7.90;4.70;;;;;;;;;;5032744;28;20049;-72
2023/06/28 03:11:21;;;;;;;5.82;4.40;;;;;;;;;;5035661;28;20087;-71
2023/06/28 03:13:47;;;;;;;7.38;4.80;;;;;;;;;;5035823;28;20041;-70
2023/06/28 03:16:13;;;;;;;7.75;4.65;;;;;;;;;;5027705;28;20041;-70
2023/06/28 03:18:38;;;;;;;8.05;4.47;;;;;;;;;;5028188;28;20045;-70
2023/06/28 03:21:04;;;;;;;11.07;4.65;;;;;;;;;;5019367;28;20046;-70
2023/06/28 03:23:29;;;;;;;5.60;4.80;;;;;;;;;;5019134;28;20087;-71
2023/06/28 03:25:54;;;;;;;7.68;5.20;;;;;;;;;;5032197;28;20058;-72
2023/06/28 03:28:20;;;;;;;5.50;4.45;;;;;;;;;;5028961;28;20128;-72
2023/06/28 03:30:46;;;;;;;5.88;5.28;;;;;;;;;;5005640;28;20060;-72
2023/06/28 03:33:11;;;;;;;7.75;4.90;;;;;;;;;;5018832;28;20053;-72
2023/06/28 03:35:37;;;;;;;5.78;4.75;;;;;;;;;;5023952;28;20072;-72
2023/06/28 03:38:02;;;;;;;9.93;4.85;;;;;;;;;;5026081;28;20072;-72
2023/06/28 03:40:30;;;;;;;8.65;5.38;;;;;;;;;;5026788;28;20078;-73
2023/06/28 03:42:56;;;;;;;50.67;6.72;;;;;;;;;;5012645;28;20073;-72
2023/06/28 03:45:21;;;;;;;8.55;5.55;;;;;;;;;;5034911;28;20136;-70
2023/06/28 03:47:51;;;;;;;9.45;5.75;;;;;;;;;;5020412;28;20076;-71
2023/06/28 03:50:18;;;;;;;10.38;5.22;;;;;;;;;;5025358;28;20072;-72
2023/06/28 03:52:43;;;;;;;8.18;5.15;;;;;;;;;;5018003;28;20128;-70
2023/06/28 03:55:11;;;;;;;6.13;4.82;;;;;;;;;;5010690;28;20063;-71
2023/06/28 03:57:36;;;;;;;8.23;5.32;;;;;;;;;;5026037;28;20051;-71
2023/06/28 04:00:04;;;;;;;6.93;4.72;;;;;;;;;;5019982;28;20056;-72
2023/06/28 04:02:41;;;;;;;5.10;3.92;;;;;;;;;;5021719;28;20045;-74
2023/06/28 04:05:06;;;;;;;3.67;3.25;;;;;;;;;;5002462;28;20140;-74
2023/06/28 04:07:32;;;;;;;3.30;2.90;;;;;;;;;;5025575;28;20123;-75
2023/06/28 04:09:58;;;;;;;4.63;3.72;;;;;;;;;;5027183;28;20059;-74
2023/06/28 04:12:24;;;;;;;5.65;3.60;;;;;;;;;;4994253;28;20040;-74
2023/06/28 04:14:49;;;;;;;5.93;3.78;;;;;;;;;;5021336;28;20055;-75
2023/06/28 04:17:15;;;;;;;3.85;3.55;;;;;;;;;;5010746;28;20045;-75
2023/06/28 04:19:40;;;;;;;3.78;3.38;;;;;;;;;;5026227;28;20041;-75
2023/06/28 04:22:06;;;;;;;5.68;3.55;;;;;;;;;;5027210;28;20060;-75
2023/06/28 04:24:31;;;;;;;4.60;4.10;;;;;;;;;;5028329;28;20087;-75
2023/06/28 04:27:00;;;;;;;4.80;3.97;;;;;;;;;;5022851;28;20132;-74
2023/06/28 04:29:27;;;;;;;4.45;3.75;;;;;;;;;;5027625;28;20132;-74
2023/06/28 04:31:52;;;;;;;5.95;3.78;;;;;;;;;;5026942;28;20064;-74
2023/06/28 04:34:19;;;;;;;5.22;3.55;;;;;;;;;;5018028;28;20241;-74
2023/06/28 04:36:45;;;;;;;3.88;3.58;;;;;;;;;;5035459;28;20476;-74
2023/06/28 04:39:12;;;;;;;3.63;3.33;;;;;;;;;;5023759;28;20129;-74
2023/06/28 04:41:37;;;;;;;4.60;3.20;;;;;;;;;;5020285;28;20037;-74
2023/06/28 04:44:03;;;;;;;5.47;3.88;;;;;;;;;;5019715;28;20994;-73
2023/06/28 04:46:28;;;;;;;5.55;3.58;;;;;;;;;;5025226;28;20813;-73
2023/06/28 04:48:56;;;;;;;3.55;3.25;;;;;;;;;;5025565;28;20068;-73
2023/06/28 04:51:22;;;;;;;4.20;3.80;;;;;;;;;;5025281;28;20037;-74
2023/06/28 04:53:49;;;;;;;5.10;3.40;;;;;;;;;;5027158;28;20445;-74
2023/06/28 04:56:15;;;;;;;4.47;3.75;;;;;;;;;;5043723;28;20050;-74
2023/06/28 04:58:41;;;;;;;3.75;3.40;;;;;;;;;;5004742;28;20105;-74
2023/06/28 05:01:08;;;;;;;4.68;3.70;;;;;;;;;;5004362;28;20978;-73
2023/06/28 05:03:34;;;;;;;4.22;3.70;;;;;;;;;;5028939;28;20053;-74
2023/06/28 05:06:07;;;;;;;4.03;3.30;;;;;;;;;;5005650;28;20049;-74
2023/06/28 05:08:34;;;;;;;7.28;3.83;;;;;;;;;;5028407;28;20045;-74
2023/06/28 05:11:00;;;;;;;3.67;3.38;;;;;;;;;;5031588;28;20057;-74
2023/06/28 05:13:26;;;;;;;4.85;3.65;;;;;;;;;;5032435;28;20041;-74
2023/06/28 05:15:52;;;;;;;5.03;3.38;;;;;;;;;;5029386;28;20044;-74
2023/06/28 05:18:18;;;;;;;6.10;3.35;;;;;;;;;;5030674;28;20161;-73
2023/06/28 05:20:43;;;;;;;4.93;3.80;;;;;;;;;;5030931;28;20053;-72
2023/06/28 05:23:15;;;;;;;3.50;3.20;;;;;;;;;;5022871;28;20060;-73
2023/06/28 05:25:41;;;;;;;7.47;3.90;;;;;;;;;;5028022;28;20103;-72
2023/06/28 05:28:08;;;;;;;3.53;3.03;;;;;;;;;;5028363;28;20037;-73
2023/06/28 05:30:33;;;;;;;4.18;3.10;;;;;;;;;;5025161;28;20064;-73
2023/06/28 05:33:02;;;;;;;3.60;3.28;;;;;;;;;;5025318;28;20057;-73
2023/06/28 05:35:29;;;;;;;3.88;3.20;;;;;;;;;;5023513;28;20136;-73
2023/06/28 05:37:55;;;;;;;5.03;3.20;;;;;;;;;;5026430;28;20033;-73
2023/06/28 05:40:22;;;;;;;3.53;3.22;;;;;;;;;;5026142;28;20041;-73
2023/06/28 05:42:48;;;;;;;5.20;3.40;;;;;;;;;;4976152;28;20077;-73
2023/06/28 05:45:13;;;;;;;3.95;2.75;;;;;;;;;;5004822;28;20048;-73
2023/06/28 05:47:39;;;;;;;4.47;2.90;;;;;;;;;;5023007;28;20065;-73
2023/06/28 05:50:05;;;;;;;3.33;3.00;;;;;;;;;;5019865;28;20103;-73
2023/06/28 05:52:30;;;;;;;4.03;3.03;;;;;;;;;;5021560;28;20109;-72
2023/06/28 05:54:55;;;;;;;3.75;2.85;;;;;;;;;;5027927;28;20048;-72
2023/06/28 05:57:21;;;;;;;3.17;2.88;;;;;;;;;;5025795;28;20049;-72
2023/06/28 05:59:46;;;;;;;4.72;3.13;;;;;;;;;;5021878;28;20483;-72
2023/06/28 06:02:12;;;;;;;2.85;2.58;;;;;;;;;;5025711;28;20045;-71
2023/06/28 06:04:37;;;;;;;3.60;2.95;;;;;;;;;;5022987;28;20046;-70
2023/06/28 06:07:03;;;;;;;3.20;2.80;;;;;;;;;;5017961;28;20391;-70
2023/06/28 06:09:30;;;;;;;3.88;2.90;;;;;;;;;;5028229;28;20529;-69
2023/06/28 06:11:56;;;;;;;6.60;3.20;;;;;;;;;;5026117;28;20053;-70
2023/06/28 06:14:21;;;;;;;2.92;2.60;;;;;;;;;;5020814;28;20042;-69
2023/06/28 06:16:46;;;;;;;3.10;2.65;;;;;;;;;;5025030;28;20426;-70
2023/06/28 06:19:12;;;;;;;3.63;2.47;;;;;;;;;;5021683;28;20045;-70
2023/06/28 06:21:37;;;;;;;6.15;2.45;;;;;;;;;;5022031;28;20481;-70
2023/06/28 06:24:07;;;;;;;2.83;2.60;;;;;;;;;;5024668;28;20076;-69
2023/06/28 06:26:36;;;;;;;4.82;2.70;;;;;;;;;;5021195;28;20124;-70
2023/06/28 06:29:02;;;;;;;5.07;2.40;;;;;;;;;;5021196;28;20050;-72
2023/06/28 06:31:28;;;;;;;5.20;2.58;;;;;;;;;;5021835;28;20045;-70
2023/06/28 06:33:56;;;;;;;2.15;2.00;;;;;;;;;;5021224;28;20049;-70
2023/06/28 06:36:22;;;;;;;3.35;2.50;;;;;;;;;;5028358;28;20037;-70
2023/06/28 06:38:48;;;;;;;4.53;2.10;;;;;;;;;;5021315;28;20056;-70
2023/06/28 06:41:13;;;;;;;2.38;2.17;;;;;;;;;;5021462;28;21133;-71
2023/06/28 06:43:39;;;;;;;2.53;2.30;;;;;;;;;;5021716;28;20053;-69
2023/06/28 06:46:05;;;;;;;2.65;2.20;;;;;;;;;;5027060;28;20045;-70
2023/06/28 06:48:30;;;;;;;2.92;2.45;;;;;;;;;;5028528;28;20111;-70
2023/06/28 06:50:55;;;;;;;2.30;2.10;;;;;;;;;;5026113;28;20100;-71
2023/06/28 06:53:21;;;;;;;2.13;1.75;;;;;;;;;;5021617;28;20060;-70
2023/06/28 06:55:46;;;;;;;2.35;2.08;;;;;;;;;;5020233;28;20041;-70
2023/06/28 06:58:12;;;;;;;2.30;2.10;;;;;;;;;;5032292;28;20110;-69
2023/06/28 07:00:37;;;;;;;3.17;1.90;;;;;;;;;;5025152;28;20044;-71
2023/06/28 07:03:02;;;;;;;3.17;2.13;;;;;;;;;;5021214;28;20052;-71
2023/06/28 07:05:28;;;;;;;2.00;1.83;;;;;;;;;;5020905;28;20167;-71
2023/06/28 07:07:54;;;;;;;2.13;1.90;;;;;;;;;;5024329;28;20053;-73
2023/06/28 07:10:20;;;;;;;2.00;1.80;;;;;;;;;;5020941;28;20637;-70
2023/06/28 07:12:45;;;;;;;1.67;1.58;;;;;;;;;;5020084;28;20862;-73
2023/06/28 07:15:10;;;;;;;2.88;1.98;;;;;;;;;;5019497;28;20053;-70
2023/06/28 07:17:36;;;;;;;1.80;1.70;;;;;;;;;;5023168;28;21329;-70
2023/06/28 07:20:02;;;;;;;1.83;1.70;;;;;;;;;;5022230;28;20076;-71
2023/06/28 07:22:27;;;;;;;3.03;1.73;;;;;;;;;;5021017;28;20104;-71
2023/06/28 07:24:53;;;;;;;1.83;1.58;;;;;;;;;;5025013;28;20109;-73
2023/06/28 07:27:18;;;;;;;2.28;1.60;;;;;;;;;;5019061;28;20075;-73
2023/06/28 07:29:43;;;;;;;1.65;1.55;;;;;;;;;;5019438;28;20073;-71
2023/06/28 07:32:09;;;;;;;2.45;1.60;;;;;;;;;;5020325;28;20062;-73
2023/06/28 07:34:34;;;;;;;2.17;1.58;;;;;;;;;;5026019;28;20063;-71
2023/06/28 07:37:05;;;;;;;1.73;1.13;;;;;;;;;;5022211;28;20049;-71
2023/06/28 07:39:31;;;;;;;3.42;1.77;;;;;;;;;;5020045;28;20053;-71
2023/06/28 07:41:57;;;;;;;1.45;1.35;;;;;;;;;;5034388;28;20052;-70
2023/06/28 07:44:22;;;;;;;1.30;1.20;;;;;;;;;;5027246;28;20033;-71
2023/06/28 07:46:47;;;;;;;2.42;1.48;;;;;;;;;;5028679;28;20447;-71
2023/06/28 07:49:13;;;;;;;1.40;1.30;;;;;;;;;;5018411;28;20103;-71
2023/06/28 07:51:38;;;;;;;1.52;1.42;;;;;;;;;;5024726;28;20053;-72
2023/06/28 07:54:04;;;;;;;1.38;1.20;;;;;;;;;;5035341;28;20041;-70
2023/06/28 07:56:29;;;;;;;1.38;1.27;;;;;;;;;;5019734;28;20057;-71
2023/06/28 07:58:54;;;;;;;3.25;1.63;;;;;;;;;;5019963;28;20502;-71
2023/06/28 08:01:20;;;;;;;1.48;1.27;;;;;;;;;;5028330;28;20052;-72
2023/06/28 08:03:45;;;;;;;1.52;1.30;;;;;;;;;;5017470;28;20041;-71
2023/06/28 08:06:11;;;;;;;1.40;1.30;;;;;;;;;;5027927;28;20045;-72
2023/06/28 08:08:36;;;;;;;2.53;1.35;;;;;;;;;;5028146;28;20091;-72
2023/06/28 08:11:02;;;;;;;2.28;1.30;;;;;;;;;;5032345;28;20581;-73
2023/06/28 08:13:27;;;;;;;1.33;1.02;;;;;;;;;;5027615;28;20053;-70
2023/06/28 08:15:52;;;;;;;1.50;1.10;;;;;;;;;;5019943;28;20095;-74
2023/06/28 08:18:18;;;;;;;1.00;1.00;;;;;;;;;;5032955;28;20983;-72
2023/06/28 08:20:44;;;;;;;1.50;1.17;;;;;;;;;;5019283;28;20049;-72
2023/06/28 08:23:10;;;;;;;1.80;1.08;;;;;;;;;;5030833;28;20108;-73
2023/06/28 08:25:35;;;;;;;1.55;1.20;;;;;;;;;;5029804;28;20473;-73
2023/06/28 08:28:01;;;;;;;1.70;1.10;;;;;;;;;;5029408;28;20399;-73
2023/06/28 08:30:26;;;;;;;2.65;1.30;;;;;;;;;;5019820;28;20080;-72
2023/06/28 08:32:51;;;;;;;2.15;1.67;;;;;;;;;;5026238;28;20056;-73
2023/06/28 08:35:17;;;;;;;1.67;1.20;;;;;;;;;;5026653;28;20041;-72
2023/06/28 08:37:43;;;;;;;1.85;1.13;;;;;;;;;;5031108;28;20144;-72
2023/06/28 08:40:10;;;;;;;1.23;0.95;;;;;;;;;;5032346;28;20037;-73
2023/06/28 08:42:39;;;;;;;1.10;1.00;;;;;;;;;;5025808;28;20423;-71
2023/06/28 08:45:05;;;;;;;1.50;1.00;;;;;;;;;;5023805;28;20041;-72
2023/06/28 08:47:32;;;;;;;2.42;1.10;;;;;;;;;;5030684;28;20049;-72
2023/06/28 08:49:58;;;;;;;1.05;0.98;;;;;;;;;;5033230;28;20830;-72
2023/06/28 08:52:26;;;;;;;1.10;0.98;;;;;;;;;;5027854;28;20033;-72
2023/06/28 08:54:52;;;;;;;2.10;1.30;;;;;;;;;;5041547;28;20754;-72
2023/06/28 08:57:17;;;;;;;2.03;1.10;;;;;;;;;;5022755;28;20043;-72
2023/06/28 08:59:43;;;;;;;1.73;1.30;;;;;;;;;;5027694;28;20051;-71
2023/06/28 09:02:09;;;;;;;2.47;1.20;;;;;;;;;;5027468;28;20068;-72
2023/06/28 09:04:35;;;;;;;4.63;1.15;;;;;;;;;;5022937;28;20041;-71
2023/06/28 09:07:02;;;;;;;2.95;1.23;;;;;;;;;;5026633;28;20055;-71
2023/06/28 09:09:28;;;;;;;3.97;1.17;;;;;;;;;;5029873;28;20048;-73
2023/06/28 09:11:55;;;;;;;1.08;0.90;;;;;;;;;;5031996;28;20502;-73
2023/06/28 09:14:20;;;;;;;1.77;1.02;;;;;;;;;;5033089;28;20053;-72
2023/06/28 09:16:45;;;;;;;0.80;0.80;;;;;;;;;;5023413;28;20611;-70
2023/06/28 09:19:11;;;;;;;1.52;0.98;;;;;;;;;;5023628;28;20092;-74
2023/06/28 09:21:37;;;;;;;1.70;1.20;;;;;;;;;;5029453;28;20146;-73
2023/06/28 09:24:02;;;;;;;3.47;1.20;;;;;;;;;;5031586;28;20111;-72
2023/06/28 09:26:32;;;;;;;2.38;0.90;;;;;;;;;;5027507;28;20517;-71
2023/06/28 09:29:08;;;;;;;1.45;1.00;;;;;;;;;;5031547;28;20207;-73
2023/06/28 09:31:41;;;;;;;2.08;0.90;;;;;;;;;;5027397;28;20046;-73
2023/06/28 09:34:07;;;;;;;1.20;1.10;;;;;;;;;;5022910;28;20051;-72
2023/06/28 09:36:37;;;;;;;1.10;1.00;;;;;;;;;;5024472;28;20055;-72
2023/06/28 09:39:09;;;;;;;1.30;1.20;;;;;;;;;;5022356;28;20052;-71
2023/06/28 09:41:40;;;;;;;1.23;1.00;;;;;;;;;;5027269;28;20045;-71
2023/06/28 09:44:09;;;;;;;1.67;1.15;;;;;;;;;;5021121;28;20148;-71
2023/06/28 09:46:35;;;;;;;2.55;1.10;;;;;;;;;;5028216;28;20458;-71
2023/06/28 09:49:00;;;;;;;1.30;1.20;;;;;;;;;;5029011;28;20060;-73
2023/06/28 09:51:26;;;;;;;1.00;0.95;;;;;;;;;;5019692;28;20044;-73
2023/06/28 09:53:54;;;;;;;1.25;1.15;;;;;;;;;;5037695;28;20045;-74
2023/06/28 09:56:40;;;;;;;1.35;0.98;;;;;;;;;;5029940;28;20041;-73
2023/06/28 09:59:07;;;;;;;1.10;1.00;;;;;;;;;;5029528;28;20085;-72
2023/06/28 10:01:39;;;;;;;1.00;0.90;;;;;;;;;;5050336;28;20045;-72
2023/06/28 10:04:08;;;;;;;1.10;1.00;;;;;;;;;;5030090;28;20051;-73
2023/06/28 10:06:35;;;;;;;1.27;1.17;;;;;;;;;;5022991;28;20037;-72
2023/06/28 10:09:01;;;;;;;2.85;1.15;;;;;;;;;;5028717;28;20041;-73
2023/06/28 10:11:30;;;;;;;1.15;1.05;;;;;;;;;;5024429;28;20045;-74
2023/06/28 10:13:56;;;;;;;2.10;1.02;;;;;;;;;;5029136;28;20267;-73
2023/06/28 10:16:25;;;;;;;1.20;1.10;;;;;;;;;;5025201;28;21075;-72
2023/06/28 10:18:50;;;;;;;1.35;0.98;;;;;;;;;;5035146;28;20430;-72
2023/06/28 10:21:16;;;;;;;0.98;0.90;;;;;;;;;;5020028;28;20525;-72
2023/06/28 10:23:43;;;;;;;0.82;0.82;;;;;;;;;;5021702;28;20041;-72
2023/06/28 10:26:09;;;;;;;1.13;0.80;;;;;;;;;;5028632;28;20053;-72
2023/06/28 10:28:35;;;;;;;1.08;1.02;;;;;;;;;;5036297;28;20041;-71
2023/06/28 10:31:04;;;;;;;1.20;1.10;;;;;;;;;;5024206;28;20069;-72
2023/06/28 10:33:36;;;;;;;3.75;1.05;;;;;;;;;;5028170;28;20135;-72
2023/06/28 10:36:03;;;;;;;1.52;1.00;;;;;;;;;;5027422;28;20055;-71
2023/06/28 10:38:42;;;;;;;1.10;1.00;;;;;;;;;;5026516;28;20260;-72
2023/06/28 10:41:07;;;;;;;1.13;0.85;;;;;;;;;;5033460;28;20049;-72
2023/06/28 10:43:33;;;;;;;1.67;1.10;;;;;;;;;;5021372;28;20564;-71
2023/06/28 10:45:58;;;;;;;1.95;1.08;;;;;;;;;;5021421;28;20056;-71
2023/06/28 10:48:27;;;;;;;1.00;0.90;;;;;;;;;;5025174;28;20072;-72
2023/06/28 10:50:58;;;;;;;1.50;0.93;;;;;;;;;;5028978;28;20053;-72
2023/06/28 10:53:28;;;;;;;1.13;0.90;;;;;;;;;;5021247;28;20104;-72
2023/06/28 10:56:08;;;;;;;1.73;1.20;;;;;;;;;;5021754;28;20052;-71
2023/06/28 10:58:39;;;;;;;1.37;1.00;;;;;;;;;;5024362;28;20045;-72
2023/06/28 11:01:11;;;;;;;1.25;0.90;;;;;;;;;;5023881;28;20577;-72
2023/06/28 11:03:39;;;;;;;1.00;0.90;;;;;;;;;;5024263;28;20128;-71
2023/06/28 11:06:04;;;;;;;2.03;0.93;;;;;;;;;;5019468;28;20064;-71
2023/06/28 11:08:41;;;;;;;1.83;1.10;;;;;;;;;;5019846;28;20046;-72
2023/06/28 11:11:09;;;;;;;1.25;1.10;;;;;;;;;;5020708;28;20057;-72
2023/06/28 11:13:50;;;;;;;1.20;0.90;;;;;;;;;;5020521;28;20044;-71
2023/06/28 11:16:20;;;;;;;0.85;0.85;;;;;;;;;;5020986;28;20048;-72
2023/06/28 11:18:47;;;;;;;1.85;0.90;;;;;;;;;;5019825;28;20445;-74
2023/06/28 11:21:17;;;;;;;3.50;0.98;;;;;;;;;;5033317;28;20072;-75
2023/06/28 11:23:46;;;;;;;1.23;0.98;;;;;;;;;;5020602;28;21096;-75
2023/06/28 11:26:31;;;;;;;1.50;1.20;;;;;;;;;;5027533;28;20152;-74
2023/06/28 11:28:57;;;;;;;0.80;0.80;;;;;;;;;;5024180;28;20077;-73
2023/06/28 11:31:39;;;;;;;1.10;1.00;;;;;;;;;;5005903;28;20103;-73
2023/06/28 11:34:04;;;;;;;1.33;1.20;;;;;;;;;;5026477;28;20047;-73
2023/06/28 11:36:31;;;;;;;0.90;0.90;;;;;;;;;;5026446;28;20048;-70
2023/06/28 11:38:56;;;;;;;2.30;1.23;;;;;;;;;;5023063;28;20049;-71
2023/06/28 11:41:22;;;;;;;0.88;0.85;;;;;;;;;;5019449;28;20049;-71
2023/06/28 11:43:48;;;;;;;2.70;1.23;;;;;;;;;;5022430;28;20053;-71
2023/06/28 11:46:22;;;;;;;2.60;1.52;;;;;;;;;;5030470;28;20049;-72
2023/06/28 11:48:50;;;;;;;1.63;1.10;;;;;;;;;;5018907;28;20045;-71
2023/06/28 11:51:16;;;;;;;1.90;1.10;;;;;;;;;;5024320;28;20040;-71
2023/06/28 11:53:47;;;;;;;2.35;1.20;;;;;;;;;;5020229;28;20074;-71
2023/06/28 11:56:12;;;;;;;1.52;1.00;;;;;;;;;;5022160;28;20044;-72
2023/06/28 11:58:38;;;;;;;1.77;1.10;;;;;;;;;;5028096;28;20380;-71
2023/06/28 12:01:05;;;;;;;1.02;0.98;;;;;;;;;;5026277;28;20049;-71
2023/06/28 12:03:35;;;;;;;1.10;1.00;;;;;;;;;;5028241;28;20574;-71
2023/06/28 12:06:03;;;;;;;2.15;1.50;;;;;;;;;;5027721;28;20055;-71
2023/06/28 12:08:36;;;;;;;2.95;1.20;;;;;;;;;;5024673;28;20452;-71
2023/06/28 12:11:09;;;;;;;4.32;1.10;;;;;;;;;;5042624;28;20449;-72
2023/06/28 12:13:34;;;;;;;1.77;1.23;;;;;;;;;;5021802;28;20049;-73
2023/06/28 12:16:21;;;;;;;1.55;1.00;;;;;;;;;;5030180;28;20053;-73
2023/06/28 12:19:00;;;;;;;1.33;1.17;;;;;;;;;;5024672;28;20041;-73
2023/06/28 12:21:32;;;;;;;1.20;1.10;;;;;;;;;;5032763;28;20056;-73
2023/06/28 12:24:16;;;;;;;1.58;1.20;;;;;;;;;;5028201;28;20562;-73
2023/06/28 12:26:48;;;;;;;1.60;1.10;;;;;;;;;;5023742;28;20088;-73
2023/06/28 12:29:20;;;;;;;4.85;0.90;;;;;;;;;;5024764;28;20495;-71
2023/06/28 12:31:48;;;;;;;1.88;1.20;;;;;;;;;;5022788;28;20073;-71
2023/06/28 12:34:22;;;;;;;1.27;1.10;;;;;;;;;;5027200;28;20045;-72
2023/06/28 12:37:00;;;;;;;1.00;1.00;;;;;;;;;;5029243;28;20045;-71
2023/06/28 12:39:31;;;;;;;2.38;1.23;;;;;;;;;;5029492;28;20509;-73
2023/06/28 12:42:22;;;;;;;6.45;1.58;;;;;;;;;;5019740;28;20045;-73
2023/06/28 12:44:54;;;;;;;2.33;1.20;;;;;;;;;;5027176;28;20196;-73
2023/06/28 12:47:21;;;;;;;1.00;0.90;;;;;;;;;;5019059;28;20049;-73
2023/06/28 12:49:48;;;;;;;3.03;1.33;;;;;;;;;;5025621;28;20052;-74
2023/06/28 12:52:14;;;;;;;1.33;1.05;;;;;;;;;;5026527;28;20132;-73
2023/06/28 12:54:40;;;;;;;1.50;1.00;;;;;;;;;;5018260;28;20037;-73
2023/06/28 12:57:06;;;;;;;1.13;1.02;;;;;;;;;;5022003;28;20050;-73
2023/06/28 12:59:35;;;;;;;1.75;1.30;;;;;;;;;;5018362;28;20065;-73
2023/06/28 13:02:01;;;;;;;1.65;1.02;;;;;;;;;;5020314;28;20088;-73
2023/06/28 13:04:27;;;;;;;1.25;0.90;;;;;;;;;;5019710;28;20061;-73
2023/06/28 13:06:53;;;;;;;0.73;0.73;;;;;;;;;;5018879;28;20049;-73
2023/06/28 13:09:18;;;;;;;1.63;0.90;;;;;;;;;;5017855;28;20071;-73
2023/06/28 13:11:43;;;;;;;1.38;1.08;;;;;;;;;;5019641;28;20041;-73
2023/06/28 13:14:09;;;;;;;1.83;1.13;;;;;;;;;;5013948;28;20048;-73
2023/06/28 13:16:35;;;;;;;2.00;1.10;;;;;;;;;;5018563;28;20045;-74
2023/06/28 13:19:01;;;;;;;2.47;1.20;;;;;;;;;;5034439;28;20053;-74
2023/06/28 13:21:26;;;;;;;3.65;1.20;;;;;;;;;;5027382;28;20037;-74
2023/06/28 13:23:52;;;;;;;3.95;1.02;;;;;;;;;;5022428;28;20469;-73
2023/06/28 13:26:17;;;;;;;2.83;0.85;;;;;;;;;;5021914;28;20045;-73
2023/06/28 13:28:43;;;;;;;1.02;0.90;;;;;;;;;;5020752;28;20040;-73
2023/06/28 13:31:09;;;;;;;3.25;1.00;;;;;;;;;;5027445;28;20614;-73
2023/06/28 13:33:35;;;;;;;1.27;0.98;;;;;;;;;;5022306;28;20046;-73
2023/06/28 13:36:01;;;;;;;1.00;1.00;;;;;;;;;;5022891;28;20057;-73
2023/06/28 13:38:27;;;;;;;1.52;1.20;;;;;;;;;;5023548;28;20042;-72
2023/06/28 13:40:52;;;;;;;4.45;1.25;;;;;;;;;;5022257;28;20529;-73
2023/06/28 13:43:18;;;;;;;1.45;1.35;;;;;;;;;;5020210;28;20078;-73
2023/06/28 13:45:43;;;;;;;1.80;1.25;;;;;;;;;;5030830;28;20068;-73
2023/06/28 13:48:08;;;;;;;1.65;1.23;;;;;;;;;;5022739;28;20158;-72
2023/06/28 13:50:34;;;;;;;1.67;1.30;;;;;;;;;;5022173;28;20095;-75
2023/06/28 13:53:01;;;;;;;1.27;1.17;;;;;;;;;;5022182;28;20060;-73
2023/06/28 13:55:26;;;;;;;2.92;0.93;;;;;;;;;;5027035;28;20475;-73
2023/06/28 13:57:52;;;;;;;0.75;0.70;;;;;;;;;;5030730;28;20045;-72
2023/06/28 14:00:17;;;;;;;1.00;0.90;;;;;;;;;;5023434;28;20055;-73
2023/06/28 14:02:43;;;;;;;1.38;0.98;;;;;;;;;;5013520;28;20128;-73
2023/06/28 14:05:08;;;;;;;1.95;1.20;;;;;;;;;;5023873;28;20278;-73
2023/06/28 14:07:34;;;;;;;1.45;1.27;;;;;;;;;;5022569;28;20498;-72
2023/06/28 14:10:00;;;;;;;1.33;0.90;;;;;;;;;;5020313;28;20104;-73
2023/06/28 14:12:25;;;;;;;3.38;1.30;;;;;;;;;;5022603;28;20041;-72
2023/06/28 14:14:51;;;;;;;0.90;0.90;;;;;;;;;;5028836;28;20099;-73
2023/06/28 14:17:17;;;;;;;2.00;1.17;;;;;;;;;;5014598;28;20184;-74
2023/06/28 14:19:43;;;;;;;2.25;1.00;;;;;;;;;;5025842;28;20398;-73
2023/06/28 14:22:09;;;;;;;2.15;1.00;;;;;;;;;;5022153;28;20049;-75
2023/06/28 14:24:34;;;;;;;1.48;0.90;;;;;;;;;;5020328;28;20564;-72
2023/06/28 14:27:00;;;;;;;1.20;1.10;;;;;;;;;;5021380;28;20449;-72
2023/06/28 14:29:25;;;;;;;0.80;0.75;;;;;;;;;;5027938;28;20478;-73
2023/06/28 14:31:51;;;;;;;1.65;0.93;;;;;;;;;;5023778;28;20167;-72
2023/06/28 14:34:16;;;;;;;1.65;1.10;;;;;;;;;;5018462;28;20056;-72
2023/06/28 14:36:42;;;;;;;1.55;1.00;;;;;;;;;;5027407;28;20037;-72
2023/06/28 14:39:08;;;;;;;1.77;1.20;;;;;;;;;;5029059;28;20056;-73
2023/06/28 14:41:33;;;;;;;2.65;1.10;;;;;;;;;;5029483;28;20224;-73